Time;durP1;ratioP1;P1;durP2;ratioP2;P2;SDS_P1;SDS_P2;PMS_P1;PMS_P2;Temp;Humidity;BMP_temperature;BMP_pressure;BME280_temperature;BME280_humidity;BME280_pressure;Samples;Min_cycle;Max_cycle;Signal;HPM_P1;HPM_P2
2022/12/15 00:41:01;;;;;;;15.73;7.23;;;;;;;;;;6207780;23;20044;-63
2022/12/15 00:43:35;;;;;;;19.90;8.07;;;;;;;;;;6208105;23;20031;-63
2022/12/15 00:48:56;;;;;;;17.93;7.60;;;;;;;;;;6206752;23;20021;-63
2022/12/15 01:20:17;;;;;;;27.57;9.87;;;;;;;;;;6206704;23;20024;-48
2022/12/15 01:22:52;;;;;;;28.87;9.13;;;;;;;;;;6206790;23;20046;-51
2022/12/15 01:25:20;;;;;;;23.30;9.33;;;;;;;;;;6207207;23;20067;-51
2022/12/15 01:27:54;;;;;;;19.90;8.33;;;;;;;;;;6207339;23;20052;-51
2022/12/15 01:30:22;;;;;;;23.23;9.60;;;;;;;;;;6205880;23;20017;-49
2022/12/15 01:32:50;;;;;;;25.73;10.23;;;;;;;;;;6207712;23;20025;-54
2022/12/15 01:35:26;;;;;;;25.60;9.77;;;;;;;;;;6206350;23;20021;-51
2022/12/15 01:37:53;;;;;;;23.90;9.60;;;;;;;;;;6207067;23;20027;-53
2022/12/15 01:40:45;;;;;;;22.47;9.03;;;;;;;;;;6206599;23;20028;-51
2022/12/15 01:43:12;;;;;;;22.47;8.40;;;;;;;;;;6208488;23;20044;-53
2022/12/15 01:45:55;;;;;;;20.83;8.30;;;;;;;;;;6207651;23;20020;-52
2022/12/15 01:48:26;;;;;;;19.83;7.97;;;;;;;;;;6210238;23;20071;-54
2022/12/15 01:51:20;;;;;;;23.47;8.20;;;;;;;;;;6208690;23;20392;-63
2022/12/15 01:53:50;;;;;;;20.70;8.43;;;;;;;;;;6184178;23;20032;-51
2022/12/15 01:56:25;;;;;;;16.20;6.83;;;;;;;;;;6208983;23;20347;-51
2022/12/15 01:58:54;;;;;;;22.87;9.93;;;;;;;;;;6208757;23;20248;-50
2022/12/15 02:01:22;;;;;;;26.87;9.47;;;;;;;;;;6209286;23;20458;-49
2022/12/15 02:03:56;;;;;;;29.20;10.73;;;;;;;;;;6209303;23;20021;-52
2022/12/15 02:06:24;;;;;;;29.03;10.40;;;;;;;;;;6208555;23;20466;-44
2022/12/15 02:09:00;;;;;;;30.07;10.67;;;;;;;;;;6208738;23;20017;-52
2022/12/15 02:11:47;;;;;;;27.23;11.10;;;;;;;;;;6208595;23;20573;-63
2022/12/15 02:14:43;;;;;;;27.20;10.17;;;;;;;;;;6208421;23;20031;-63
2022/12/15 02:17:22;;;;;;;27.03;10.10;;;;;;;;;;6208707;23;20418;-62
2022/12/15 02:20:11;;;;;;;25.27;9.80;;;;;;;;;;6208392;23;20027;-63
2022/12/15 02:22:41;;;;;;;24.90;9.43;;;;;;;;;;6208630;23;20029;-63
2022/12/15 02:25:43;;;;;;;23.95;9.45;;;;;;;;;;6207921;23;20541;-63
2022/12/15 02:28:43;;;;;;;28.77;9.23;;;;;;;;;;6208400;23;20024;-63
2022/12/15 02:34:14;;;;;;;23.70;9.10;;;;;;;;;;6208871;23;20027;-53
2022/12/15 02:36:49;;;;;;;22.43;8.37;;;;;;;;;;6207539;23;20112;-51
2022/12/15 02:39:18;;;;;;;20.33;8.20;;;;;;;;;;6208105;23;20474;-50
2022/12/15 02:41:52;;;;;;;25.23;8.27;;;;;;;;;;6208868;23;20036;-50
2022/12/15 02:44:27;;;;;;;25.53;8.87;;;;;;;;;;6207531;23;20046;-56
2022/12/15 02:47:26;;;;;;;21.57;8.63;;;;;;;;;;6182749;23;20029;-56
2022/12/15 02:50:00;;;;;;;22.87;8.40;;;;;;;;;;6208746;23;20030;-51
2022/12/15 02:52:44;;;;;;;26.43;9.03;;;;;;;;;;6207849;23;20536;-49
2022/12/15 02:55:22;;;;;;;24.27;9.60;;;;;;;;;;6209149;23;20028;-50
2022/12/15 02:58:02;;;;;;;22.73;9.20;;;;;;;;;;6209702;23;20136;-48
2022/12/15 03:00:39;;;;;;;25.50;9.60;;;;;;;;;;6208991;23;20100;-48
2022/12/15 03:03:07;;;;;;;26.90;8.67;;;;;;;;;;6208142;23;20027;-50
2022/12/15 03:05:41;;;;;;;26.67;10.17;;;;;;;;;;6207844;23;20100;-63
2022/12/15 03:08:08;;;;;;;26.97;9.97;;;;;;;;;;6207911;23;20028;-55
2022/12/15 03:10:41;;;;;;;29.07;10.13;;;;;;;;;;6207784;23;20127;-53
2022/12/15 03:13:09;;;;;;;24.03;9.33;;;;;;;;;;6209140;23;20044;-52
2022/12/15 03:15:36;;;;;;;22.93;8.93;;;;;;;;;;6209618;23;20103;-53
2022/12/15 03:18:22;;;;;;;27.33;8.93;;;;;;;;;;6208175;23;20028;-50
2022/12/15 03:20:56;;;;;;;20.40;7.47;;;;;;;;;;6207876;23;20024;-53
2022/12/15 03:23:24;;;;;;;26.23;9.80;;;;;;;;;;6208190;23;20029;-54
2022/12/15 03:25:51;;;;;;;22.90;9.33;;;;;;;;;;6208168;23;20484;-64
2022/12/15 03:28:24;;;;;;;24.60;9.33;;;;;;;;;;6208408;23;20343;-51
2022/12/15 03:30:52;;;;;;;22.40;9.13;;;;;;;;;;6208354;23;20473;-48
2022/12/15 03:33:26;;;;;;;26.27;9.77;;;;;;;;;;6209868;23;20024;-50
2022/12/15 03:35:53;;;;;;;23.70;8.37;;;;;;;;;;6206942;23;20031;-53
2022/12/15 03:38:20;;;;;;;23.10;9.23;;;;;;;;;;6208078;23;20025;-50
2022/12/15 03:40:53;;;;;;;23.20;8.53;;;;;;;;;;6207827;23;20508;-49
2022/12/15 03:43:21;;;;;;;20.37;8.47;;;;;;;;;;6208357;23;20024;-46
2022/12/15 03:45:55;;;;;;;24.20;9.03;;;;;;;;;;6209143;23;20179;-44
2022/12/15 03:48:22;;;;;;;26.03;8.83;;;;;;;;;;6182788;23;20393;-45
2022/12/15 03:50:49;;;;;;;23.93;8.17;;;;;;;;;;6208030;23;20385;-47
2022/12/15 03:53:23;;;;;;;25.23;8.53;;;;;;;;;;6208920;23;20035;-45
2022/12/15 03:55:51;;;;;;;25.07;8.57;;;;;;;;;;6208235;23;20016;-44
2022/12/15 03:58:25;;;;;;;23.00;9.10;;;;;;;;;;6206836;23;20059;-43
2022/12/15 04:00:52;;;;;;;23.27;8.37;;;;;;;;;;6207216;23;20553;-50
2022/12/15 04:03:20;;;;;;;22.67;9.40;;;;;;;;;;6181017;23;20021;-54
2022/12/15 04:05:54;;;;;;;27.07;9.00;;;;;;;;;;6207545;23;20485;-62
2022/12/15 04:08:25;;;;;;;24.37;9.73;;;;;;;;;;6207201;23;20482;-63
2022/12/15 04:10:58;;;;;;;;;;;;;;;;;;6208160;23;20027;-63
2022/12/15 04:13:25;;;;;;;25.57;8.30;;;;;;;;;;6206546;23;20361;-62
2022/12/15 04:16:03;;;;;;;22.13;7.93;;;;;;;;;;6207602;23;20052;-63
2022/12/15 04:18:37;;;;;;;22.73;8.03;;;;;;;;;;6207469;23;20512;-63
2022/12/15 04:21:11;;;;;;;21.73;8.40;;;;;;;;;;6208207;23;20029;-52
2022/12/15 04:23:38;;;;;;;23.40;8.77;;;;;;;;;;6208693;23;20353;-64
2022/12/15 05:34:18;;;;;;;24.90;9.30;;;;;;;;;;6175823;23;20024;-56
2022/12/15 05:36:46;;;;;;;26.33;8.37;;;;;;;;;;6177840;23;20025;-57
2022/12/15 05:39:13;;;;;;;24.57;8.97;;;;;;;;;;6178135;23;20092;-53
2022/12/15 05:41:46;;;;;;;25.60;8.87;;;;;;;;;;6176750;23;20456;-55
2022/12/15 05:44:14;;;;;;;24.37;9.03;;;;;;;;;;6179127;23;20120;-52
2022/12/15 05:46:47;;;;;;;22.60;8.77;;;;;;;;;;6176287;23;20025;-55
2022/12/15 05:49:15;;;;;;;36.13;9.60;;;;;;;;;;6165618;23;20021;-54
2022/12/15 05:51:49;;;;;;;27.20;8.83;;;;;;;;;;6179249;23;20027;-49
2022/12/15 05:54:18;;;;;;;29.70;9.37;;;;;;;;;;6153838;23;20467;-55
2022/12/15 05:56:46;;;;;;;23.47;8.80;;;;;;;;;;6177381;23;20553;-65
2022/12/15 05:59:19;;;;;;;22.27;9.50;;;;;;;;;;6156507;23;20021;-46
2022/12/15 06:01:47;;;;;;;27.77;9.50;;;;;;;;;;6178598;23;20025;-46
2022/12/15 06:04:14;;;;;;;23.87;8.90;;;;;;;;;;6181081;23;20028;-45
2022/12/15 06:06:48;;;;;;;25.17;10.10;;;;;;;;;;6178685;23;20025;-44
2022/12/15 06:09:15;;;;;;;24.93;8.47;;;;;;;;;;6181093;23;20021;-45
2022/12/15 06:11:48;;;;;;;23.50;8.40;;;;;;;;;;6177578;23;20027;-44
2022/12/15 06:14:16;;;;;;;18.83;7.47;;;;;;;;;;6180641;23;20098;-50
2022/12/15 06:16:43;;;;;;;25.27;8.97;;;;;;;;;;6179600;23;20096;-44
2022/12/15 06:19:30;;;;;;;19.37;7.33;;;;;;;;;;6203803;23;20024;-63
2022/12/15 06:22:04;;;;;;;19.93;7.70;;;;;;;;;;6208331;23;20039;-62
2022/12/15 06:24:39;;;;;;;21.93;8.43;;;;;;;;;;6209137;23;20067;-63
2022/12/15 06:27:06;;;;;;;25.10;9.10;;;;;;;;;;6207996;23;20541;-63
2022/12/15 06:29:33;;;;;;;24.80;8.73;;;;;;;;;;6209239;23;20103;-63
2022/12/15 06:32:06;;;;;;;23.47;8.50;;;;;;;;;;6208336;23;20029;-63
2022/12/15 06:34:40;;;;;;;24.30;8.80;;;;;;;;;;6209922;23;20023;-64
2022/12/15 06:37:08;;;;;;;22.80;8.27;;;;;;;;;;6208053;23;20028;-62
2022/12/15 06:39:35;;;;;;;25.03;8.67;;;;;;;;;;6209238;23;20023;-63
2022/12/15 06:42:08;;;;;;;24.27;7.70;;;;;;;;;;6209173;23;20516;-62
2022/12/15 06:44:35;;;;;;;21.40;8.53;;;;;;;;;;6210467;23;20017;-63
2022/12/15 06:47:10;;;;;;;22.57;8.03;;;;;;;;;;6209890;23;20067;-62
2022/12/15 06:49:37;;;;;;;24.00;7.47;;;;;;;;;;6210697;23;20020;-63
2022/12/15 06:52:04;;;;;;;25.93;8.63;;;;;;;;;;6209070;23;20055;-63
2022/12/15 06:54:37;;;;;;;22.60;8.53;;;;;;;;;;6210744;23;20056;-63
2022/12/15 06:57:05;;;;;;;17.53;7.43;;;;;;;;;;6208558;23;20480;-51
2022/12/15 06:59:39;;;;;;;20.10;7.83;;;;;;;;;;6210067;23;20028;-52
2022/12/15 07:02:14;;;;;;;21.63;8.00;;;;;;;;;;6209921;23;20029;-49
2022/12/15 07:04:55;;;;;;;23.10;8.53;;;;;;;;;;6208958;23;20020;-53
2022/12/15 07:07:22;;;;;;;27.50;8.20;;;;;;;;;;6210406;23;20107;-48
2022/12/15 07:09:55;;;;;;;20.87;7.73;;;;;;;;;;6209911;23;20107;-53
2022/12/15 07:12:29;;;;;;;25.93;9.03;;;;;;;;;;6209186;23;20035;-62
2022/12/15 07:15:04;;;;;;;19.03;7.80;;;;;;;;;;6207772;23;20027;-64
2022/12/15 07:17:37;;;;;;;25.53;8.67;;;;;;;;;;6209291;23;20816;-64
2022/12/15 07:20:18;;;;;;;27.60;10.03;;;;;;;;;;6210218;23;20362;-64
2022/12/15 07:22:53;;;;;;;26.73;8.13;;;;;;;;;;6208055;23;20025;-64
2022/12/15 07:25:26;;;;;;;21.93;8.03;;;;;;;;;;6208256;23;20020;-63
2022/12/15 07:28:00;;;;;;;26.83;9.07;;;;;;;;;;6182967;23;20027;-64
2022/12/15 07:30:28;;;;;;;27.63;8.57;;;;;;;;;;6208370;23;20504;-51
2022/12/15 07:33:03;;;;;;;21.33;7.80;;;;;;;;;;6208321;23;20111;-63
2022/12/15 07:35:36;;;;;;;24.93;7.80;;;;;;;;;;6208176;23;20359;-51
2022/12/15 07:38:07;;;;;;;22.73;8.13;;;;;;;;;;6208269;23;20127;-52
2022/12/15 07:40:42;;;;;;;24.30;7.60;;;;;;;;;;6209022;23;20023;-53
2022/12/15 07:43:09;;;;;;;23.07;7.17;;;;;;;;;;6209332;23;20350;-49
2022/12/15 07:45:36;;;;;;;23.90;8.70;;;;;;;;;;6209262;23;20075;-52
2022/12/15 07:48:17;;;;;;;23.77;8.23;;;;;;;;;;6209097;23;20103;-50
2022/12/15 07:50:44;;;;;;;26.13;9.13;;;;;;;;;;6209897;23;20096;-65
2022/12/15 07:53:19;;;;;;;21.47;8.13;;;;;;;;;;6209671;23;20023;-48
2022/12/15 07:55:52;;;;;;;28.20;8.30;;;;;;;;;;6207502;23;20103;-49
2022/12/15 07:58:34;;;;;;;25.67;8.70;;;;;;;;;;6209305;23;20096;-51
2022/12/15 08:01:03;;;;;;;23.27;8.60;;;;;;;;;;6208696;23;20120;-52
2022/12/15 08:03:37;;;;;;;24.30;7.60;;;;;;;;;;6207539;23;20083;-52
2022/12/15 08:06:06;;;;;;;21.70;7.50;;;;;;;;;;6208258;23;20035;-55
2022/12/15 08:08:33;;;;;;;20.03;7.73;;;;;;;;;;6208980;23;20028;-64
2022/12/15 08:11:12;;;;;;;23.00;9.07;;;;;;;;;;6182609;23;20027;-63
2022/12/15 08:13:45;;;;;;;19.93;7.40;;;;;;;;;;6208503;23;20035;-64
2022/12/15 08:16:33;;;;;;;20.83;8.20;;;;;;;;;;6205711;23;20024;-64
2022/12/15 08:19:16;;;;;;;19.73;8.33;;;;;;;;;;6207274;23;20025;-64
2022/12/15 08:21:47;;;;;;;;;;;;;;;;;;6209192;23;20021;-64
2022/12/15 08:24:27;;;;;;;19.97;6.90;;;;;;;;;;6207180;23;20389;-64
2022/12/15 08:26:55;;;;;;;20.77;7.43;;;;;;;;;;6207524;23;20095;-64
2022/12/15 08:29:29;;;;;;;21.23;7.90;;;;;;;;;;6208285;23;20099;-54
2022/12/15 08:32:16;;;;;;;18.55;7.05;;;;;;;;;;6207989;23;20339;-56
2022/12/15 08:34:49;;;;;;;22.93;8.20;;;;;;;;;;6207575;23;20028;-59
2022/12/15 08:37:23;;;;;;;22.50;8.63;;;;;;;;;;6208229;23;20104;-58
2022/12/15 08:39:51;;;;;;;19.33;8.27;;;;;;;;;;6207842;23;20025;-60
2022/12/15 08:42:25;;;;;;;20.57;7.90;;;;;;;;;;6208870;23;20027;-60
2022/12/15 08:44:52;;;;;;;20.47;7.83;;;;;;;;;;6208337;23;20095;-58
2022/12/15 08:47:19;;;;;;;24.97;8.03;;;;;;;;;;6206823;23;20042;-59
2022/12/15 08:49:53;;;;;;;25.90;8.80;;;;;;;;;;6208100;23;20025;-63
2022/12/15 08:52:20;;;;;;;23.70;9.93;;;;;;;;;;6208486;23;20020;-50
2022/12/15 08:54:54;;;;;;;26.97;8.27;;;;;;;;;;6207962;23;20021;-52
2022/12/15 08:57:22;;;;;;;23.33;8.60;;;;;;;;;;6210744;23;20087;-50
2022/12/15 08:59:49;;;;;;;27.00;8.63;;;;;;;;;;6211513;23;20020;-49
2022/12/15 09:02:22;;;;;;;24.30;8.53;;;;;;;;;;6184378;23;20028;-50
2022/12/15 09:04:50;;;;;;;24.90;7.87;;;;;;;;;;6211690;23;20024;-50
2022/12/15 09:07:23;;;;;;;22.67;10.10;;;;;;;;;;6210383;23;20024;-48
2022/12/15 09:09:50;;;;;;;27.13;10.53;;;;;;;;;;6210889;23;20454;-58
2022/12/15 09:12:25;;;;;;;30.03;9.83;;;;;;;;;;6210203;23;20541;-57
2022/12/15 09:14:52;;;;;;;33.17;13.10;;;;;;;;;;6210692;23;20447;-53
2022/12/15 09:17:19;;;;;;;23.17;9.53;;;;;;;;;;6210916;23;20023;-58
2022/12/15 09:19:59;;;;;;;23.07;9.13;;;;;;;;;;6210312;23;20127;-53
2022/12/15 09:22:26;;;;;;;22.87;8.87;;;;;;;;;;6211874;23;20019;-55
2022/12/15 09:25:01;;;;;;;24.80;9.77;;;;;;;;;;6210985;23;20024;-54
2022/12/15 09:27:29;;;;;;;22.60;10.10;;;;;;;;;;6212333;23;20416;-44
2022/12/15 09:30:03;;;;;;;25.80;10.93;;;;;;;;;;6211003;23;20058;-47
2022/12/15 09:32:31;;;;;;;32.63;12.97;;;;;;;;;;6210948;23;20021;-50
2022/12/15 09:34:58;;;;;;;36.37;13.80;;;;;;;;;;6212615;23;20025;-49
2022/12/15 09:37:32;;;;;;;32.27;12.03;;;;;;;;;;6211678;23;20048;-53
2022/12/15 09:39:59;;;;;;;35.13;11.80;;;;;;;;;;6209813;23;20025;-54
2022/12/15 09:42:32;;;;;;;33.80;12.90;;;;;;;;;;6210723;23;20474;-50
2022/12/15 09:45:15;;;;;;;34.80;15.17;;;;;;;;;;6212371;23;20095;-63
2022/12/15 09:48:00;;;;;;;39.23;13.03;;;;;;;;;;6212232;23;20095;-64
2022/12/15 09:50:47;;;;;;;57.63;19.47;;;;;;;;;;6212080;23;20020;-64
2022/12/15 09:53:24;;;;;;;54.77;17.40;;;;;;;;;;6211703;23;20021;-64
2022/12/15 09:56:21;;;;;;;55.23;17.07;;;;;;;;;;6212095;23;20470;-63
2022/12/15 09:58:57;;;;;;;39.33;14.93;;;;;;;;;;6212430;23;20027;-64
2022/12/15 10:01:32;;;;;;;49.80;15.40;;;;;;;;;;6211916;23;20031;-64
2022/12/15 10:04:06;;;;;;;42.87;15.17;;;;;;;;;;6210233;23;20504;-57
2022/12/15 10:06:36;;;;;;;34.70;13.40;;;;;;;;;;6210915;23;20031;-51
2022/12/15 10:09:28;;;;;;;25.93;11.43;;;;;;;;;;6209848;23;20358;-51
2022/12/15 10:12:14;;;;;;;27.10;11.70;;;;;;;;;;6208508;23;20017;-49
2022/12/15 10:14:54;;;;;;;28.90;11.10;;;;;;;;;;6208334;23;20035;-52
2022/12/15 10:17:26;;;;;;;29.50;11.93;;;;;;;;;;6209882;23;20292;-48
2022/12/15 10:20:14;;;;;;;26.40;10.20;;;;;;;;;;6206441;23;20091;-49
2022/12/15 10:22:42;;;;;;;26.93;10.47;;;;;;;;;;6208897;23;20021;-52
2022/12/15 10:25:28;;;;;;;21.53;10.07;;;;;;;;;;6210209;23;20500;-59
2022/12/15 10:28:00;;;;;;;25.23;9.60;;;;;;;;;;6208283;23;20085;-64
2022/12/15 10:30:34;;;;;;;22.70;10.80;;;;;;;;;;6209380;23;20060;-64
2022/12/15 10:33:20;;;;;;;22.17;9.23;;;;;;;;;;6208294;23;20074;-64
2022/12/15 10:35:55;;;;;;;23.47;10.10;;;;;;;;;;6210032;23;20020;-64
2022/12/15 10:38:30;;;;;;;25.43;9.37;;;;;;;;;;6208711;23;20339;-64
2022/12/15 10:41:07;;;;;;;23.33;10.20;;;;;;;;;;6208983;23;20020;-55
2022/12/15 10:43:35;;;;;;;32.87;11.80;;;;;;;;;;6210245;23;20028;-54
2022/12/15 10:46:23;;;;;;;32.60;12.87;;;;;;;;;;6209124;23;20023;-46
2022/12/15 10:49:21;;;;;;;36.13;14.10;;;;;;;;;;6209882;23;20028;-44
2022/12/15 10:51:59;;;;;;;33.67;12.57;;;;;;;;;;6208051;23;20477;-45
2022/12/15 10:54:29;;;;;;;25.83;12.57;;;;;;;;;;6207851;23;20060;-45
2022/12/15 10:57:16;;;;;;;23.87;10.63;;;;;;;;;;6208707;23;20035;-46
2022/12/15 10:59:44;;;;;;;25.00;10.27;;;;;;;;;;6208043;23;20052;-53
2022/12/15 11:02:20;;;;;;;23.53;9.77;;;;;;;;;;6209559;23;20075;-50
2022/12/15 11:04:55;;;;;;;22.10;9.73;;;;;;;;;;6207841;23;20028;-57
2022/12/15 11:07:39;;;;;;;23.75;10.10;;;;;;;;;;6209025;23;20067;-55
2022/12/15 11:10:13;;;;;;;22.20;9.67;;;;;;;;;;6208521;23;20020;-59
2022/12/15 11:12:54;;;;;;;22.30;9.70;;;;;;;;;;6208441;23;20771;-58
2022/12/15 11:15:30;;;;;;;23.60;9.50;;;;;;;;;;6208396;23;20025;-58
2022/12/15 11:18:05;;;;;;;22.30;9.53;;;;;;;;;;6207064;23;20340;-60
2022/12/15 11:20:51;;;;;;;20.57;8.87;;;;;;;;;;6209966;23;20103;-54
2022/12/15 11:23:39;;;;;;;19.57;9.37;;;;;;;;;;6208358;23;20059;-59
2022/12/15 11:26:22;;;;;;;21.60;9.53;;;;;;;;;;6208318;23;20023;-56
2022/12/15 11:28:55;;;;;;;22.03;9.07;;;;;;;;;;6207575;23;20067;-60
2022/12/15 11:31:41;;;;;;;23.07;10.13;;;;;;;;;;6209007;23;20020;-56
2022/12/15 11:34:19;;;;;;;24.00;9.97;;;;;;;;;;6209632;23;20484;-57
2022/12/15 11:37:11;;;;;;;20.97;9.33;;;;;;;;;;6207993;23;20027;-57
2022/12/15 11:39:42;;;;;;;57.30;17.90;;;;;;;;;;6209540;23;20028;-51
2022/12/15 11:42:38;;;;;;;56.22;19.67;;;;;;;;;;6209017;23;20568;-64
2022/12/15 11:45:23;;;;;;;39.92;13.13;;;;;;;;;;6209480;23;20030;-64
2022/12/15 11:47:51;;;;;;;26.67;11.67;;;;;;;;;;6209126;23;20542;-63
2022/12/15 11:50:30;;;;;;;21.97;10.13;;;;;;;;;;6209442;23;20130;-64
2022/12/15 11:53:06;;;;;;;24.57;10.10;;;;;;;;;;6207653;23;20076;-64
2022/12/15 11:55:46;;;;;;;28.83;10.77;;;;;;;;;;6209118;23;20060;-64
2022/12/15 11:58:20;;;;;;;20.97;10.07;;;;;;;;;;6209392;23;20020;-54
2022/12/15 12:01:12;;;;;;;25.13;10.97;;;;;;;;;;6208526;23;20363;-46
2022/12/15 12:03:52;;;;;;;25.60;10.93;;;;;;;;;;6208017;23;20024;-46
2022/12/15 12:06:47;;;;;;;25.73;10.83;;;;;;;;;;6207228;23;20021;-47
2022/12/15 12:09:23;;;;;;;32.47;11.85;;;;;;;;;;6207541;23;20028;-45
2022/12/15 12:12:32;;;;;;;31.63;11.17;;;;;;;;;;6208410;23;20027;-45
2022/12/15 12:15:22;;;;;;;30.40;11.80;;;;;;;;;;6056791;23;20117;-47
2022/12/15 12:18:13;;;;;;;28.67;10.63;;;;;;;;;;6207477;23;20103;-64
2022/12/15 12:20:54;;;;;;;26.53;9.87;;;;;;;;;;6177538;23;20478;-59
2022/12/15 12:23:51;;;;;;;20.43;9.30;;;;;;;;;;6177491;23;20099;-58
2022/12/15 12:26:37;;;;;;;18.67;8.80;;;;;;;;;;6163833;23;20025;-58
2022/12/15 12:29:14;;;;;;;27.40;11.40;;;;;;;;;;6176880;23;20025;-57
2022/12/15 12:31:56;;;;;;;26.63;11.07;;;;;;;;;;6178612;23;20021;-60
2022/12/15 12:34:50;;;;;;;25.07;10.03;;;;;;;;;;6178194;23;20109;-54
2022/12/15 12:37:26;;;;;;;45.33;10.57;;;;;;;;;;6177998;23;20115;-63
2022/12/15 12:40:14;;;;;;;24.30;10.13;;;;;;;;;;6178260;23;20112;-50
2022/12/15 12:42:45;;;;;;;23.73;9.50;;;;;;;;;;6177866;23;20112;-49
2022/12/15 12:45:21;;;;;;;28.50;10.40;;;;;;;;;;6177154;23;20112;-54
2022/12/15 12:47:51;;;;;;;30.07;11.13;;;;;;;;;;6178171;23;20060;-55
2022/12/15 12:50:26;;;;;;;26.53;10.60;;;;;;;;;;6176801;23;20068;-54
2022/12/15 12:52:55;;;;;;;23.43;10.47;;;;;;;;;;6177362;23;20021;-52
2022/12/15 12:55:38;;;;;;;27.00;10.23;;;;;;;;;;6177793;23;20099;-56
2022/12/15 12:58:28;;;;;;;27.58;10.95;;;;;;;;;;6176386;23;20108;-51
2022/12/15 13:01:15;;;;;;;24.77;10.37;;;;;;;;;;6169369;23;20530;-54
2022/12/15 13:03:43;;;;;;;30.50;11.87;;;;;;;;;;6177362;23;20482;-53
2022/12/15 13:06:35;;;;;;;33.23;12.77;;;;;;;;;;6177774;23;20095;-52
2022/12/15 13:09:20;;;;;;;33.00;11.93;;;;;;;;;;6151279;23;20060;-53
2022/12/15 13:11:56;;;;;;;28.93;11.67;;;;;;;;;;6177800;23;20415;-54
2022/12/15 13:14:28;;;;;;;25.90;10.77;;;;;;;;;;6175461;23;20128;-63
2022/12/15 13:17:01;;;;;;;;;;;;;;;;;;6178816;23;20407;-57
2022/12/15 13:19:58;;;;;;;28.43;11.13;;;;;;;;;;6196806;23;19915;-56
2022/12/15 13:22:35;;;;;;;28.00;10.73;;;;;;;;;;6208840;23;20417;-54
2022/12/15 13:25:29;;;;;;;30.33;10.77;;;;;;;;;;6209311;23;20029;-54
2022/12/15 13:28:17;;;;;;;28.60;11.10;;;;;;;;;;6208028;23;20438;-56
2022/12/15 13:31:03;;;;;;;27.47;11.10;;;;;;;;;;6208319;23;20020;-58
2022/12/15 13:33:49;;;;;;;24.97;10.30;;;;;;;;;;6209761;23;20629;-64
2022/12/15 13:36:35;;;;;;;26.83;10.67;;;;;;;;;;6208485;23;20016;-60
2022/12/15 13:39:12;;;;;;;29.73;11.17;;;;;;;;;;6207380;23;20099;-57
2022/12/15 13:41:41;;;;;;;24.57;9.87;;;;;;;;;;6210011;23;20095;-56
2022/12/15 13:44:45;;;;;;;27.70;10.03;;;;;;;;;;6188950;23;20027;-57
2022/12/15 13:47:16;;;;;;;30.90;10.73;;;;;;;;;;6210503;23;20020;-57
2022/12/15 13:49:59;;;;;;;30.37;10.40;;;;;;;;;;6209304;23;20505;-58
2022/12/15 13:52:33;;;;;;;26.50;10.87;;;;;;;;;;6184301;23;20024;-59
2022/12/15 13:55:31;;;;;;;29.60;11.73;;;;;;;;;;6211074;23;20028;-53
2022/12/15 13:58:05;;;;;;;34.93;12.17;;;;;;;;;;6207815;23;20051;-55
2022/12/15 14:00:39;;;;;;;33.43;12.27;;;;;;;;;;6209803;23;20024;-52
2022/12/15 14:03:09;;;;;;;26.70;11.10;;;;;;;;;;6208634;23;20027;-50
2022/12/15 14:05:38;;;;;;;28.97;11.73;;;;;;;;;;6207441;23;20024;-51
2022/12/15 14:08:14;;;;;;;28.93;11.30;;;;;;;;;;6209975;23;20016;-55
2022/12/15 14:10:50;;;;;;;29.63;11.90;;;;;;;;;;6209210;23;20112;-44
2022/12/15 14:13:24;;;;;;;27.33;11.53;;;;;;;;;;6209472;23;20020;-63
2022/12/15 14:16:02;;;;;;;27.77;11.50;;;;;;;;;;6210157;23;20280;-63
2022/12/15 14:18:49;;;;;;;25.90;11.30;;;;;;;;;;6183647;23;20639;-63
2022/12/15 14:21:25;;;;;;;36.53;11.40;;;;;;;;;;6209243;23;20024;-64
2022/12/15 14:24:00;;;;;;;27.23;11.20;;;;;;;;;;6209442;23;20029;-63
2022/12/15 14:26:47;;;;;;;28.42;10.77;;;;;;;;;;6186176;23;20024;-64
2022/12/15 14:29:22;;;;;;;28.40;10.13;;;;;;;;;;6208929;23;20100;-61
2022/12/15 14:31:50;;;;;;;27.23;9.53;;;;;;;;;;6209842;23;20071;-44
2022/12/15 14:34:38;;;;;;;27.60;10.77;;;;;;;;;;6209155;23;20021;-46
2022/12/15 14:37:08;;;;;;;27.73;10.77;;;;;;;;;;6208973;23;20066;-44
2022/12/15 14:39:44;;;;;;;24.10;10.10;;;;;;;;;;6208963;23;20031;-47
2022/12/15 14:42:17;;;;;;;31.30;11.33;;;;;;;;;;6208575;23;20466;-45
2022/12/15 14:44:51;;;;;;;23.37;10.00;;;;;;;;;;6210657;23;20060;-46
2022/12/15 14:47:28;;;;;;;26.40;10.50;;;;;;;;;;6210251;23;20027;-45
2022/12/15 14:50:03;;;;;;;31.37;12.00;;;;;;;;;;6209392;23;20492;-45
2022/12/15 14:52:33;;;;;;;26.70;10.67;;;;;;;;;;6207604;23;20146;-48
2022/12/15 14:55:25;;;;;;;25.27;10.67;;;;;;;;;;6208076;23;20074;-45
2022/12/15 14:57:53;;;;;;;26.43;11.00;;;;;;;;;;6208858;23;20027;-45
2022/12/15 15:00:33;;;;;;;29.47;10.83;;;;;;;;;;6209604;23;20100;-46
2022/12/15 15:03:18;;;;;;;25.73;10.50;;;;;;;;;;6209610;23;20025;-44
2022/12/15 15:05:57;;;;;;;29.23;11.57;;;;;;;;;;6208022;23;20318;-46
2022/12/15 15:08:24;;;;;;;30.97;11.83;;;;;;;;;;6208231;23;20024;-51
2022/12/15 15:11:01;;;;;;;35.30;12.70;;;;;;;;;;6207151;23;20021;-63
2022/12/15 15:13:36;;;;;;;29.43;11.13;;;;;;;;;;6209220;23;20103;-63
2022/12/15 15:16:17;;;;;;;28.67;11.73;;;;;;;;;;6208501;23;20063;-63
2022/12/15 15:18:51;;;;;;;34.07;12.23;;;;;;;;;;6207552;23;20020;-64
2022/12/15 15:21:27;;;;;;;29.17;11.40;;;;;;;;;;6209292;23;20021;-64
2022/12/15 15:24:02;;;;;;;23.83;9.63;;;;;;;;;;6182113;23;20029;-64
2022/12/15 15:26:36;;;;;;;29.60;10.50;;;;;;;;;;6207975;23;20025;-43
2022/12/15 15:29:04;;;;;;;32.70;10.63;;;;;;;;;;6208944;23;20024;-62
2022/12/15 15:31:35;;;;;;;25.67;10.23;;;;;;;;;;6208931;23;20029;-45
2022/12/15 15:34:10;;;;;;;20.83;8.90;;;;;;;;;;6207128;23;20091;-44
2022/12/15 15:36:38;;;;;;;25.23;9.60;;;;;;;;;;6209067;23;20032;-46
2022/12/15 15:39:14;;;;;;;29.60;9.87;;;;;;;;;;6208730;23;20537;-45
2022/12/15 15:41:41;;;;;;;29.67;10.37;;;;;;;;;;6208218;23;20024;-46
2022/12/15 15:44:12;;;;;;;25.07;8.57;;;;;;;;;;6208714;23;20333;-45
2022/12/15 15:46:47;;;;;;;26.95;9.68;;;;;;;;;;6209430;23;20030;-63
2022/12/15 15:49:16;;;;;;;25.80;9.77;;;;;;;;;;6207800;23;20091;-53
2022/12/15 15:51:43;;;;;;;21.43;9.33;;;;;;;;;;6209227;23;20553;-56
2022/12/15 15:54:20;;;;;;;24.37;10.27;;;;;;;;;;6209470;23;20462;-55
2022/12/15 15:56:53;;;;;;;20.02;7.85;;;;;;;;;;6209164;23;20567;-57
2022/12/15 15:59:23;;;;;;;26.53;9.87;;;;;;;;;;6208734;23;20035;-57
2022/12/15 16:01:58;;;;;;;20.87;8.80;;;;;;;;;;6209064;23;20055;-60
2022/12/15 16:04:26;;;;;;;22.47;8.83;;;;;;;;;;6207824;23;20366;-50
2022/12/15 16:06:53;;;;;;;27.33;9.10;;;;;;;;;;6208661;23;20088;-45
2022/12/15 16:09:27;;;;;;;25.37;10.10;;;;;;;;;;6210031;23;20017;-43
2022/12/15 16:11:54;;;;;;;31.30;10.27;;;;;;;;;;6208722;23;20031;-44
2022/12/15 16:14:21;;;;;;;21.30;9.77;;;;;;;;;;6205307;23;20025;-44
2022/12/15 16:16:55;;;;;;;25.07;9.63;;;;;;;;;;6206307;23;20096;-46
2022/12/15 16:19:35;;;;;;;27.30;9.37;;;;;;;;;;6204029;23;20067;-44
2022/12/15 16:22:19;;;;;;;23.45;9.35;;;;;;;;;;6206213;23;20075;-46
2022/12/15 16:24:55;;;;;;;;;;;;;;;;;;6205725;23;20024;-63
2022/12/15 16:27:22;;;;;;;32.40;10.47;;;;;;;;;;6206026;23;19991;-45
2022/12/15 16:29:49;;;;;;;29.40;10.23;;;;;;;;;;6205240;23;20107;-44
2022/12/15 16:32:22;;;;;;;43.83;11.63;;;;;;;;;;6204190;23;20064;-47
2022/12/15 16:34:50;;;;;;;40.50;10.93;;;;;;;;;;6206027;23;20504;-45
2022/12/15 16:37:27;;;;;;;56.90;13.17;;;;;;;;;;6206130;23;20720;-44
2022/12/15 16:39:55;;;;;;;70.13;13.87;;;;;;;;;;6204501;23;20027;-44
2022/12/15 16:42:22;;;;;;;49.80;10.77;;;;;;;;;;6207023;23;20029;-46
2022/12/15 16:44:56;;;;;;;45.93;12.50;;;;;;;;;;6205224;23;20047;-49
2022/12/15 16:47:23;;;;;;;54.93;14.70;;;;;;;;;;6206370;23;20042;-62
2022/12/15 16:49:50;;;;;;;69.87;14.30;;;;;;;;;;6205077;23;20105;-63
2022/12/15 16:52:24;;;;;;;43.47;13.00;;;;;;;;;;6206648;23;20020;-63
2022/12/15 16:54:51;;;;;;;66.53;12.33;;;;;;;;;;6203820;23;20107;-63
2022/12/15 16:57:24;;;;;;;85.90;13.97;;;;;;;;;;6204308;23;20035;-63
2022/12/15 16:59:52;;;;;;;91.00;14.40;;;;;;;;;;6205482;23;20023;-63
2022/12/15 17:02:27;;;;;;;95.97;13.20;;;;;;;;;;6205647;23;20099;-63
2022/12/15 17:04:55;;;;;;;107.77;14.60;;;;;;;;;;6201674;23;20027;-62
2022/12/15 17:07:23;;;;;;;93.30;13.87;;;;;;;;;;6206680;23;20099;-44
2022/12/15 17:09:56;;;;;;;45.00;12.83;;;;;;;;;;6206546;23;20023;-44
2022/12/15 17:12:24;;;;;;;35.40;12.37;;;;;;;;;;6207476;23;20435;-45
2022/12/15 17:14:51;;;;;;;35.50;12.23;;;;;;;;;;6207580;23;20509;-44
2022/12/15 17:17:25;;;;;;;32.77;11.27;;;;;;;;;;6208597;23;20031;-43
2022/12/15 17:19:59;;;;;;;39.37;12.30;;;;;;;;;;6207732;23;20029;-43
2022/12/15 17:22:55;;;;;;;35.20;12.53;;;;;;;;;;6210580;23;20509;-47
2022/12/15 17:25:24;;;;;;;38.83;12.80;;;;;;;;;;6209434;23;20563;-55
2022/12/15 17:28:20;;;;;;;39.50;11.83;;;;;;;;;;6209949;23;20156;-55
2022/12/15 17:30:49;;;;;;;38.40;12.37;;;;;;;;;;6210456;23;20052;-58
2022/12/15 17:33:27;;;;;;;46.80;12.80;;;;;;;;;;6210539;23;20025;-57
2022/12/15 17:36:03;;;;;;;44.47;13.50;;;;;;;;;;6208788;23;20099;-59